Time;durP1;ratioP1;P1;durP2;ratioP2;P2;SDS_P1;SDS_P2;PMS_P1;PMS_P2;Temp;Humidity;BMP_temperature;BMP_pressure;BME280_temperature;BME280_humidity;BME280_pressure;Samples;Min_cycle;Max_cycle;Signal;HPM_P1;HPM_P2
2022/08/23 00:02:07;;;;;;;1.30;1.20;;;21.20;87.50;;;;;;5003293;28;20651;-76
2022/08/23 00:04:38;;;;;;;1.33;1.23;;;21.20;87.90;;;;;;5001531;28;20711;-76
2022/08/23 00:07:08;;;;;;;1.30;1.20;;;21.20;88.50;;;;;;5002095;28;20205;-76
2022/08/23 00:09:35;;;;;;;1.77;1.25;;;21.20;88.00;;;;;;5003380;28;20631;-76
2022/08/23 00:12:13;;;;;;;1.10;1.10;;;21.20;88.00;;;;;;5002283;28;20232;-75
2022/08/23 00:14:43;;;;;;;1.02;1.00;;;21.20;88.40;;;;;;5001747;28;20652;-76
2022/08/23 00:17:11;;;;;;;1.00;1.00;;;21.10;88.20;;;;;;5007059;28;20207;-74
2022/08/23 00:19:39;;;;;;;1.13;1.02;;;21.10;88.50;;;;;;5001359;28;20315;-75
2022/08/23 00:22:07;;;;;;;1.00;1.00;;;21.10;88.70;;;;;;5001647;28;20189;-76
2022/08/23 00:24:35;;;;;;;1.10;1.10;;;21.10;88.70;;;;;;4999944;28;20224;-75
2022/08/23 00:27:06;;;;;;;1.25;1.15;;;21.10;88.90;;;;;;5004538;28;20219;-75
2022/08/23 00:29:40;;;;;;;0.90;0.90;;;21.00;89.00;;;;;;5002062;28;20251;-75
2022/08/23 00:32:10;;;;;;;1.30;1.20;;;20.90;89.10;;;;;;5003083;28;20227;-75
2022/08/23 00:34:38;;;;;;;1.15;1.08;;;20.90;89.40;;;;;;5001374;28;20236;-75
2022/08/23 00:37:06;;;;;;;1.30;1.20;;;20.80;89.40;;;;;;5004274;28;20196;-75
2022/08/23 00:39:33;;;;;;;1.55;1.10;;;20.80;89.40;;;;;;5002240;28;20233;-75
2022/08/23 00:47:38;;;;;;;1.23;1.13;;;20.80;89.70;;;;;;5005045;28;20203;-75
2022/08/23 00:47:41;;;;;;;0.95;0.95;;;20.70;90.10;;;;;;5007055;28;20207;-75
2022/08/23 00:50:22;;;;;;;1.27;1.10;;;20.60;90.10;;;;;;5010683;28;20216;-76
2022/08/23 00:52:59;;;;;;;1.17;1.08;;;20.60;90.40;;;;;;5010293;28;20193;-76
2022/08/23 00:55:27;;;;;;;1.30;1.20;;;20.50;90.50;;;;;;5008298;28;20216;-76
2022/08/23 00:57:55;;;;;;;1.20;1.10;;;20.50;90.40;;;;;;5011691;28;20200;-76
2022/08/23 01:00:24;;;;;;;0.90;0.90;;;20.50;90.50;;;;;;5010576;28;20215;-76
2022/08/23 01:02:53;;;;;;;1.30;1.20;;;20.40;90.60;;;;;;5007762;28;20683;-76
2022/08/23 01:05:23;;;;;;;1.10;1.08;;;20.40;90.60;;;;;;5008837;28;20287;-76
2022/08/23 01:07:53;;;;;;;1.20;1.10;;;20.30;90.60;;;;;;5006722;28;20578;-76
2022/08/23 01:10:26;;;;;;;0.98;0.98;;;20.30;90.70;;;;;;5004322;28;20694;-76
2022/08/23 01:12:56;;;;;;;1.20;1.20;;;20.30;90.80;;;;;;5007034;28;20197;-75
2022/08/23 01:15:30;;;;;;;1.08;1.08;;;20.30;90.90;;;;;;5010569;28;20224;-76
2022/08/23 01:18:02;;;;;;;1.30;1.20;;;20.30;91.00;;;;;;5008252;28;20193;-76
2022/08/23 01:20:35;;;;;;;1.05;1.00;;;20.30;91.00;;;;;;5009729;28;20216;-75
2022/08/23 01:23:09;;;;;;;1.20;1.10;;;20.20;91.20;;;;;;5009191;28;20206;-76
2022/08/23 01:25:38;;;;;;;1.10;1.10;;;20.10;91.30;;;;;;5011164;28;20994;-76
2022/08/23 01:28:05;;;;;;;0.93;0.93;;;20.10;91.40;;;;;;5006617;28;20288;-75
2022/08/23 01:30:35;;;;;;;1.20;1.10;;;20.10;91.40;;;;;;5010320;28;20216;-74
2022/08/23 01:33:07;;;;;;;1.13;1.02;;;20.10;91.50;;;;;;5011525;28;20549;-76
2022/08/23 01:35:38;;;;;;;1.02;1.02;;;20.10;91.70;;;;;;5010744;28;20307;-76
2022/08/23 01:38:06;;;;;;;1.05;1.00;;;20.00;91.80;;;;;;5008359;28;20215;-75
2022/08/23 01:40:33;;;;;;;0.90;0.90;;;20.00;91.70;;;;;;5012421;28;20226;-76
2022/08/23 01:43:02;;;;;;;1.58;1.10;;;20.00;91.80;;;;;;5012374;28;20207;-75
2022/08/23 01:45:29;;;;;;;1.10;1.10;;;20.00;91.80;;;;;;5007594;28;20220;-75
2022/08/23 01:47:57;;;;;;;0.95;0.95;;;20.00;91.90;;;;;;5012478;28;20655;-74
2022/08/23 01:50:25;;;;;;;1.20;1.10;;;20.00;91.90;;;;;;5007072;28;21807;-75
2022/08/23 01:52:53;;;;;;;0.88;0.88;;;20.00;92.00;;;;;;5011598;28;20226;-75
2022/08/23 01:55:21;;;;;;;1.05;0.95;;;20.00;92.10;;;;;;5010020;28;20224;-76
2022/08/23 01:57:52;;;;;;;1.30;1.20;;;20.00;92.40;;;;;;5012328;28;20286;-76
2022/08/23 02:00:23;;;;;;;1.13;1.05;;;19.90;92.20;;;;;;5009419;28;20220;-76
2022/08/23 02:02:51;;;;;;;1.20;1.10;;;19.90;92.30;;;;;;5015086;28;20196;-76
2022/08/23 02:05:19;;;;;;;1.35;1.25;;;19.90;92.30;;;;;;5010304;28;20216;-76
2022/08/23 02:07:46;;;;;;;1.23;1.10;;;19.80;92.40;;;;;;5004047;28;20255;-75
2022/08/23 02:10:14;;;;;;;1.40;1.30;;;19.80;92.50;;;;;;5007133;28;20707;-76
2022/08/23 02:12:41;;;;;;;1.17;1.17;;;19.80;92.60;;;;;;5007770;28;20247;-76
2022/08/23 02:15:09;;;;;;;1.30;1.30;;;19.70;92.60;;;;;;5011026;28;20224;-76
2022/08/23 02:17:37;;;;;;;1.35;1.17;;;19.70;92.80;;;;;;5009244;28;20849;-75
2022/08/23 02:20:06;;;;;;;1.10;1.10;;;19.70;92.90;;;;;;5008409;28;20236;-76
2022/08/23 02:22:33;;;;;;;1.40;1.30;;;19.60;93.00;;;;;;5004675;28;20193;-76
2022/08/23 02:25:01;;;;;;;1.10;1.10;;;19.50;93.00;;;;;;5010931;28;20220;-76
2022/08/23 02:27:28;;;;;;;1.20;1.20;;;19.50;93.20;;;;;;5008057;28;20220;-75
2022/08/23 02:29:55;;;;;;;1.30;1.20;;;19.50;93.20;;;;;;5007731;28;20706;-76
2022/08/23 02:32:22;;;;;;;1.13;1.10;;;19.50;93.20;;;;;;5009155;28;20314;-76
2022/08/23 02:34:50;;;;;;;1.92;1.30;;;19.40;93.30;;;;;;5009364;28;20742;-75
2022/08/23 02:37:17;;;;;;;1.25;1.15;;;19.40;93.40;;;;;;5012286;28;20200;-75
2022/08/23 02:39:44;;;;;;;1.40;1.30;;;19.40;93.50;;;;;;5007012;28;20243;-76
2022/08/23 02:42:13;;;;;;;1.17;1.13;;;19.30;93.60;;;;;;5004328;28;20200;-76
2022/08/23 02:44:40;;;;;;;1.38;1.27;;;19.20;93.70;;;;;;5008047;28;20235;-75
2022/08/23 02:47:08;;;;;;;1.50;1.40;;;19.20;93.80;;;;;;5009145;28;20204;-75
2022/08/23 02:49:35;;;;;;;1.50;1.40;;;19.10;93.90;;;;;;5007394;28;20228;-76
2022/08/23 02:52:05;;;;;;;3.15;1.80;;;19.00;93.70;;;;;;5006418;28;20228;-76
2022/08/23 02:54:32;;;;;;;1.65;1.55;;;19.00;93.70;;;;;;5008537;28;20224;-75
2022/08/23 02:57:00;;;;;;;1.52;1.42;;;19.00;93.90;;;;;;5007663;28;20204;-75
2022/08/23 02:59:27;;;;;;;1.98;1.27;;;18.90;94.00;;;;;;5008293;28;20231;-76
2022/08/23 03:01:54;;;;;;;1.38;1.30;;;18.90;94.00;;;;;;5009383;28;20211;-76
2022/08/23 03:04:21;;;;;;;1.52;1.38;;;18.90;94.00;;;;;;5007577;28;20674;-76
2022/08/23 03:06:48;;;;;;;1.45;1.20;;;18.80;94.30;;;;;;5005952;28;20196;-76
2022/08/23 03:09:17;;;;;;;1.13;1.13;;;18.80;94.20;;;;;;5007984;28;20275;-76
2022/08/23 03:11:48;;;;;;;1.50;1.40;;;18.90;94.20;;;;;;5004933;28;20283;-75
2022/08/23 03:14:15;;;;;;;1.40;1.30;;;18.90;94.00;;;;;;5007745;28;20335;-76
2022/08/23 03:16:42;;;;;;;1.05;1.05;;;18.90;94.20;;;;;;5008162;28;20205;-76
2022/08/23 03:19:09;;;;;;;1.85;1.73;;;19.00;94.20;;;;;;5006255;28;20223;-76
2022/08/23 03:21:37;;;;;;;1.65;1.55;;;19.00;94.20;;;;;;5009569;28;20245;-75
2022/08/23 03:24:05;;;;;;;1.55;1.30;;;19.00;94.10;;;;;;5009173;28;20204;-76
2022/08/23 03:26:33;;;;;;;1.30;1.20;;;19.00;94.10;;;;;;5006420;28;20247;-75
2022/08/23 03:29:00;;;;;;;1.40;1.30;;;19.00;94.00;;;;;;5008908;28;20228;-75
2022/08/23 03:31:28;;;;;;;1.40;1.30;;;19.00;94.10;;;;;;5005956;28;20220;-75
2022/08/23 03:33:55;;;;;;;1.63;1.52;;;19.00;94.20;;;;;;5010031;28;20200;-76
2022/08/23 03:36:22;;;;;;;1.30;1.30;;;19.00;94.30;;;;;;5005288;28;20668;-76
2022/08/23 03:38:49;;;;;;;1.50;1.40;;;18.90;94.30;;;;;;5008167;28;20220;-76
2022/08/23 03:41:16;;;;;;;1.50;1.40;;;18.90;94.30;;;;;;5007489;28;20224;-76
2022/08/23 03:43:45;;;;;;;1.50;1.40;;;18.80;94.50;;;;;;5011702;28;20251;-76
2022/08/23 03:46:21;;;;;;;1.35;1.27;;;18.70;94.50;;;;;;5003073;28;20220;-76
2022/08/23 03:48:50;;;;;;;1.20;1.17;;;18.70;94.70;;;;;;5007796;28;20241;-76
2022/08/23 03:51:18;;;;;;;1.00;1.00;;;18.70;94.70;;;;;;5005993;28;20309;-76
2022/08/23 03:53:46;;;;;;;1.20;1.10;;;18.70;94.80;;;;;;5006640;28;20262;-76
2022/08/23 03:56:21;;;;;;;1.45;1.35;;;18.70;94.70;;;;;;5012114;28;20225;-75
2022/08/23 03:58:50;;;;;;;1.60;1.50;;;18.70;95.00;;;;;;5007394;28;20220;-75
2022/08/23 04:01:17;;;;;;;1.58;1.40;;;18.60;94.90;;;;;;5008956;28;20243;-76
2022/08/23 04:03:45;;;;;;;1.00;1.00;;;18.60;95.00;;;;;;5007299;28;20201;-76
2022/08/23 04:06:13;;;;;;;1.85;1.60;;;18.60;95.00;;;;;;5006726;28;20727;-76
2022/08/23 04:08:40;;;;;;;1.20;1.10;;;18.60;95.20;;;;;;5006516;28;20220;-76
2022/08/23 04:11:08;;;;;;;1.40;1.30;;;18.60;95.30;;;;;;5007712;28;20256;-76
2022/08/23 04:13:35;;;;;;;4.00;1.40;;;18.60;95.80;;;;;;5007034;28;20240;-75
2022/08/23 04:16:04;;;;;;;1.40;1.30;;;18.50;95.20;;;;;;5009424;28;20227;-76
2022/08/23 04:18:32;;;;;;;1.40;1.30;;;18.50;95.30;;;;;;5007797;28;20253;-76
2022/08/23 04:21:02;;;;;;;1.10;1.10;;;18.50;95.30;;;;;;5009187;28;20228;-73
2022/08/23 04:23:30;;;;;;;1.50;1.40;;;18.50;95.40;;;;;;5010585;28;20201;-75
2022/08/23 04:25:57;;;;;;;1.30;1.20;;;18.50;95.40;;;;;;5008588;28;20216;-75
2022/08/23 04:28:24;;;;;;;1.13;1.10;;;18.50;95.60;;;;;;5009062;28;20707;-75
2022/08/23 04:30:52;;;;;;;1.38;1.27;;;18.40;95.60;;;;;;5009738;28;20220;-73
2022/08/23 04:33:20;;;;;;;1.48;1.38;;;18.40;96.00;;;;;;5005476;28;20208;-74
2022/08/23 04:35:47;;;;;;;1.30;1.20;;;18.40;95.60;;;;;;5009822;28;20224;-74
2022/08/23 04:38:14;;;;;;;1.45;1.02;;;18.30;95.70;;;;;;5007591;28;20200;-74
2022/08/23 04:43:27;;;;;;;1.40;1.30;;;18.30;95.80;;;;;;5005428;28;20204;-75
2022/08/23 04:45:55;;;;;;;1.60;1.50;;;18.30;95.90;;;;;;5008901;28;20227;-74
2022/08/23 04:48:23;;;;;;;1.13;1.13;;;18.30;96.00;;;;;;5012124;28;20327;-73
2022/08/23 04:50:51;;;;;;;1.67;1.42;;;18.20;96.10;;;;;;5010427;28;20231;-73
2022/08/23 04:53:19;;;;;;;1.27;1.27;;;18.20;96.40;;;;;;5012966;28;20220;-73
2022/08/23 04:55:46;;;;;;;1.20;1.20;;;18.10;96.60;;;;;;5011268;28;20274;-74
2022/08/23 04:58:14;;;;;;;1.30;1.20;;;18.10;96.40;;;;;;5010055;28;20219;-76
2022/08/23 05:00:41;;;;;;;1.35;1.25;;;18.10;96.50;;;;;;5012150;28;20363;-73
2022/08/23 05:03:08;;;;;;;1.30;1.23;;;18.10;96.50;;;;;;5011399;28;20196;-75
2022/08/23 05:05:37;;;;;;;1.40;1.30;;;18.10;96.70;;;;;;5011941;28;20220;-76
2022/08/23 05:08:04;;;;;;;1.40;1.30;;;18.10;96.80;;;;;;5009576;28;20199;-76
2022/08/23 05:10:31;;;;;;;2.63;1.90;;;18.30;96.80;;;;;;5011220;28;20255;-75
2022/08/23 05:12:58;;;;;;;1.50;1.40;;;18.50;96.50;;;;;;5010642;28;20235;-76
2022/08/23 05:15:25;;;;;;;1.70;1.60;;;18.70;95.90;;;;;;5011303;28;20219;-75
2022/08/23 05:17:52;;;;;;;1.58;1.48;;;19.00;95.80;;;;;;5012746;28;20200;-74
2022/08/23 05:20:20;;;;;;;1.30;1.20;;;19.30;95.70;;;;;;5012493;28;20220;-74
2022/08/23 05:22:49;;;;;;;1.70;1.60;;;19.60;95.60;;;;;;5013818;28;20197;-76
2022/08/23 05:25:16;;;;;;;1.52;1.38;;;20.00;95.50;;;;;;5012169;28;20702;-76
2022/08/23 05:27:43;;;;;;;1.40;1.30;;;20.20;95.30;;;;;;5010344;28;20200;-74
2022/08/23 05:30:11;;;;;;;1.45;1.35;;;20.50;94.90;;;;;;5028332;22;20224;-74
2022/08/23 05:32:38;;;;;;;1.38;1.27;;;20.80;94.30;;;;;;5011526;28;20278;-75
2022/08/23 05:35:06;;;;;;;1.77;1.52;;;20.90;94.20;;;;;;5012593;28;20626;-75
2022/08/23 05:37:33;;;;;;;1.70;1.60;;;20.80;94.20;;;;;;5010311;28;20246;-75
2022/08/23 05:40:01;;;;;;;1.50;1.40;;;20.90;94.30;;;;;;5013548;28;20629;-74
2022/08/23 05:42:29;;;;;;;1.33;1.25;;;20.90;94.30;;;;;;5008499;28;20196;-75
2022/08/23 05:44:56;;;;;;;1.90;1.67;;;21.10;94.10;;;;;;5011129;28;20220;-74
2022/08/23 05:47:25;;;;;;;1.67;1.58;;;21.20;94.30;;;;;;5011095;28;20220;-74
2022/08/23 05:49:52;;;;;;;1.60;1.30;;;21.50;93.80;;;;;;5011563;28;20278;-74
2022/08/23 05:52:20;;;;;;;1.60;1.50;;;21.70;93.70;;;;;;5013671;28;20678;-74
2022/08/23 05:54:47;;;;;;;1.10;1.10;;;22.00;93.60;;;;;;5009452;28;20596;-73
2022/08/23 05:57:25;;;;;;;2.47;1.40;;;22.30;93.20;;;;;;5009616;28;20203;-74
2022/08/23 05:59:54;;;;;;;1.70;1.48;;;22.40;92.70;;;;;;5008409;28;20594;-74
2022/08/23 06:02:28;;;;;;;2.03;1.52;;;22.40;92.60;;;;;;5009638;28;20204;-74
2022/08/23 06:04:58;;;;;;;1.42;1.33;;;22.40;92.50;;;;;;5011060;28;20797;-74
2022/08/23 06:07:30;;;;;;;1.40;1.30;;;22.60;92.40;;;;;;5008636;28;20560;-74
2022/08/23 06:10:00;;;;;;;1.40;1.30;;;22.90;92.10;;;;;;5009207;28;20220;-75
2022/08/23 06:12:33;;;;;;;1.95;1.48;;;23.10;92.30;;;;;;5010266;28;20858;-75
2022/08/23 06:15:08;;;;;;;1.67;1.30;;;23.20;92.40;;;;;;5011074;28;20228;-75
2022/08/23 06:17:40;;;;;;;1.40;1.30;;;23.30;92.40;;;;;;4993161;28;20204;-74
2022/08/23 06:20:22;;;;;;;1.48;1.38;;;23.10;92.30;;;;;;5010224;28;20703;-75
2022/08/23 06:22:55;;;;;;;1.88;1.45;;;23.20;92.80;;;;;;5007798;28;20199;-75
2022/08/23 06:25:23;;;;;;;3.22;1.45;;;23.20;92.20;;;;;;5011135;28;20216;-75
2022/08/23 06:27:57;;;;;;;1.50;1.40;;;23.20;92.00;;;;;;5010171;28;20219;-75
2022/08/23 06:30:28;;;;;;;2.88;1.50;;;23.30;92.30;;;;;;5009458;28;20223;-75
2022/08/23 06:33:04;;;;;;;1.30;1.20;;;23.60;92.10;;;;;;5006427;28;20220;-75
2022/08/23 06:35:34;;;;;;;1.30;1.17;;;24.00;92.00;;;;;;5011297;28;20239;-74
2022/08/23 06:38:05;;;;;;;1.38;1.27;;;24.40;91.90;;;;;;5008368;28;20262;-76
2022/08/23 06:40:35;;;;;;;1.92;1.63;;;24.60;91.60;;;;;;5009990;28;20231;-76
2022/08/23 06:43:08;;;;;;;1.50;1.40;;;24.50;91.30;;;;;;5008473;28;20635;-75
2022/08/23 06:45:39;;;;;;;1.77;1.48;;;24.00;90.70;;;;;;5011012;28;20229;-75
2022/08/23 06:48:10;;;;;;;1.67;1.50;;;23.70;91.50;;;;;;5011806;28;20215;-75
2022/08/23 06:50:43;;;;;;;1.70;1.40;;;23.60;91.60;;;;;;5011869;28;20220;-74
2022/08/23 06:53:11;;;;;;;1.80;1.58;;;23.70;92.30;;;;;;5010906;28;20718;-75
2022/08/23 06:55:38;;;;;;;2.08;1.45;;;23.60;91.60;;;;;;5011246;28;20262;-75
2022/08/23 06:58:07;;;;;;;2.40;1.70;;;23.50;91.90;;;;;;5011975;28;20201;-75
2022/08/23 07:00:35;;;;;;;1.60;1.50;;;23.60;92.00;;;;;;5009869;28;20232;-75
2022/08/23 07:03:02;;;;;;;1.70;1.38;;;23.80;91.50;;;;;;5012464;28;20193;-75
2022/08/23 07:05:30;;;;;;;3.40;1.67;;;24.10;91.20;;;;;;5011929;28;20617;-75
2022/08/23 07:07:57;;;;;;;1.90;1.70;;;24.30;91.00;;;;;;5011373;28;20563;-75
2022/08/23 07:10:24;;;;;;;1.70;1.60;;;24.20;90.90;;;;;;5011098;28;20602;-75
2022/08/23 07:12:51;;;;;;;1.50;1.40;;;24.20;90.70;;;;;;5011918;28;20212;-75
2022/08/23 07:15:19;;;;;;;1.40;1.30;;;24.10;90.20;;;;;;5010593;28;20616;-74
2022/08/23 07:17:47;;;;;;;2.08;1.40;;;24.00;90.50;;;;;;5010131;28;20196;-75
2022/08/23 07:20:14;;;;;;;1.40;1.30;;;24.20;90.70;;;;;;5008454;28;20619;-75
2022/08/23 07:22:42;;;;;;;1.48;1.38;;;24.40;90.60;;;;;;5009880;28;20443;-74
2022/08/23 07:25:09;;;;;;;1.50;1.40;;;24.70;90.50;;;;;;5010277;28;20216;-75
2022/08/23 07:27:36;;;;;;;1.50;1.40;;;25.00;90.20;;;;;;5007914;28;20208;-74
2022/08/23 07:30:05;;;;;;;1.40;1.25;;;25.00;89.80;;;;;;5007213;28;20732;-76
2022/08/23 07:32:34;;;;;;;2.83;1.63;;;25.20;90.00;;;;;;5009051;28;20207;-74
2022/08/23 07:35:01;;;;;;;1.73;1.38;;;25.10;88.00;;;;;;5010784;28;20274;-75
2022/08/23 07:37:29;;;;;;;2.95;1.33;;;24.90;88.30;;;;;;5010211;28;20211;-74
2022/08/23 07:39:56;;;;;;;1.30;1.20;;;24.80;88.20;;;;;;5009070;28;20318;-75
2022/08/23 07:42:23;;;;;;;1.63;1.38;;;24.80;88.30;;;;;;5009969;28;20555;-74
2022/08/23 07:44:51;;;;;;;1.42;1.27;;;24.80;87.70;;;;;;5009255;28;20216;-75
2022/08/23 07:47:19;;;;;;;2.53;1.48;;;24.70;87.80;;;;;;5008756;28;20200;-74
2022/08/23 07:49:47;;;;;;;1.40;1.30;;;24.90;87.60;;;;;;5010725;28;20227;-74
2022/08/23 07:52:14;;;;;;;1.50;1.40;;;25.00;86.90;;;;;;5010087;28;20228;-75
2022/08/23 07:54:41;;;;;;;4.10;1.50;;;25.30;86.30;;;;;;5010274;28;20311;-74
2022/08/23 07:57:08;;;;;;;1.35;1.25;;;25.50;85.90;;;;;;5009319;28;20738;-74
2022/08/23 07:59:36;;;;;;;2.78;1.40;;;25.50;85.70;;;;;;5010110;28;20234;-74
2022/08/23 08:02:03;;;;;;;1.30;1.20;;;25.30;85.80;;;;;;5009690;28;20446;-74
2022/08/23 08:04:30;;;;;;;1.30;1.10;;;25.50;86.20;;;;;;5008325;28;20662;-74
2022/08/23 08:06:59;;;;;;;1.40;1.23;;;25.70;85.60;;;;;;5007912;28;20227;-74
2022/08/23 08:09:26;;;;;;;1.83;1.60;;;25.70;86.20;;;;;;5007158;28;20307;-74
2022/08/23 08:11:53;;;;;;;1.70;1.38;;;25.70;83.80;;;;;;5011068;28;20203;-75
2022/08/23 08:14:20;;;;;;;1.58;1.42;;;25.40;84.50;;;;;;5010758;28;20220;-75
2022/08/23 08:16:51;;;;;;;1.52;1.42;;;25.50;85.00;;;;;;5009168;28;20211;-74
2022/08/23 08:19:18;;;;;;;1.88;1.65;;;25.50;84.40;;;;;;5008624;28;20243;-74
2022/08/23 08:21:47;;;;;;;1.63;1.40;;;25.70;85.60;;;;;;5008664;28;20227;-73
2022/08/23 08:24:17;;;;;;;3.80;1.42;;;26.00;84.30;;;;;;5004123;28;20196;-74
2022/08/23 08:26:44;;;;;;;2.17;1.50;;;25.90;83.70;;;;;;5010960;28;20698;-74
2022/08/23 08:29:13;;;;;;;2.22;1.73;;;26.10;84.00;;;;;;5005126;28;20216;-74
2022/08/23 08:31:42;;;;;;;2.15;1.40;;;26.60;85.00;;;;;;5008846;28;20205;-75
2022/08/23 08:34:11;;;;;;;1.80;1.30;;;26.50;81.90;;;;;;5007836;28;20215;-74
2022/08/23 08:36:40;;;;;;;1.60;1.50;;;26.60;82.90;;;;;;5007600;28;20287;-74
2022/08/23 08:39:10;;;;;;;1.50;1.40;;;26.70;82.20;;;;;;5008876;28;20653;-75
2022/08/23 08:41:47;;;;;;;1.60;1.30;;;26.70;81.00;;;;;;5008690;28;20239;-75
2022/08/23 08:44:22;;;;;;;1.50;1.40;;;26.80;80.10;;;;;;5008179;28;20274;-75
2022/08/23 08:46:55;;;;;;;1.50;1.38;;;26.80;80.50;;;;;;5008003;28;20192;-74
2022/08/23 08:49:34;;;;;;;3.25;1.38;;;26.80;80.90;;;;;;5006285;28;20311;-74
2022/08/23 08:52:10;;;;;;;1.73;1.63;;;26.80;81.80;;;;;;5009370;28;20204;-75
2022/08/23 08:54:38;;;;;;;1.73;1.63;;;26.80;81.10;;;;;;5010788;28;20242;-74
2022/08/23 08:57:09;;;;;;;1.40;1.30;;;26.50;79.40;;;;;;5007992;28;20687;-74
2022/08/23 08:59:46;;;;;;;1.65;1.55;;;26.40;80.50;;;;;;5009877;28;20224;-75
2022/08/23 09:02:17;;;;;;;1.20;1.20;;;26.60;80.60;;;;;;5009898;28;20197;-75
2022/08/23 09:04:44;;;;;;;2.08;1.75;;;26.80;80.20;;;;;;5007673;28;20223;-75
2022/08/23 09:07:21;;;;;;;1.23;1.13;;;26.90;79.40;;;;;;5007774;28;20212;-75
2022/08/23 09:10:15;;;;;;;1.40;1.30;;;27.00;79.10;;;;;;5007792;28;20223;-75
2022/08/23 09:12:53;;;;;;;2.10;1.38;;;27.00;78.00;;;;;;5010276;28;20655;-75
2022/08/23 09:15:29;;;;;;;1.48;1.38;;;27.00;79.00;;;;;;5003667;28;20273;-75
2022/08/23 09:18:03;;;;;;;1.63;1.38;;;27.40;80.10;;;;;;5009900;28;20208;-75
2022/08/23 09:20:31;;;;;;;1.60;1.50;;;27.70;79.80;;;;;;5007235;28;20259;-75
2022/08/23 09:23:07;;;;;;;1.70;1.60;;;28.00;79.90;;;;;;5008745;28;20203;-75
2022/08/23 09:25:34;;;;;;;1.63;1.40;;;28.00;77.40;;;;;;5009464;28;20277;-75
2022/08/23 09:28:02;;;;;;;1.40;1.30;;;27.90;78.20;;;;;;5005590;28;20201;-75
2022/08/23 09:30:48;;;;;;;1.80;1.30;;;28.00;79.10;;;;;;5005325;28;20598;-75
2022/08/23 09:33:17;;;;;;;1.58;1.48;;;28.30;76.70;;;;;;5012081;28;20200;-75
2022/08/23 09:35:52;;;;;;;1.50;1.20;;;28.50;77.50;;;;;;5011406;28;20216;-75
2022/08/23 09:38:20;;;;;;;2.10;1.30;;;28.50;77.10;;;;;;5018250;28;20196;-75
2022/08/23 09:40:50;;;;;;;2.05;1.50;;;28.40;76.20;;;;;;5008796;28;20239;-76
2022/08/23 09:43:22;;;;;;;1.20;1.08;;;28.40;75.60;;;;;;5011309;28;21537;-75
2022/08/23 09:45:59;;;;;;;2.10;1.25;;;28.40;74.60;;;;;;5015153;28;20231;-75
2022/08/23 09:48:35;;;;;;;2.35;1.10;;;28.50;75.60;;;;;;5012732;28;20212;-75
2022/08/23 09:51:24;;;;;;;1.50;1.10;;;28.50;75.50;;;;;;5012137;28;20228;-75
2022/08/23 09:54:03;;;;;;;1.40;1.30;;;28.60;74.60;;;;;;5009300;28;20587;-75
2022/08/23 09:56:39;;;;;;;1.40;1.20;;;28.60;74.60;;;;;;5011752;28;20741;-75
2022/08/23 09:59:28;;;;;;;1.60;1.30;;;28.90;75.40;;;;;;5015187;28;20230;-75
2022/08/23 10:01:57;;;;;;;1.40;1.30;;;29.10;72.50;;;;;;5017254;28;20760;-76
2022/08/23 10:04:38;;;;;;;1.20;1.10;;;29.10;72.60;;;;;;5014354;28;20192;-76
2022/08/23 10:07:23;;;;;;;1.30;1.20;;;29.20;73.60;;;;;;5012379;28;20208;-76
2022/08/23 10:09:50;;;;;;;1.30;1.20;;;29.50;71.10;;;;;;5004667;28;20224;-74
2022/08/23 10:12:17;;;;;;;1.30;1.20;;;29.50;72.80;;;;;;5010496;28;20220;-75
2022/08/23 10:14:46;;;;;;;1.45;1.35;;;29.50;72.80;;;;;;5012201;28;20228;-75
2022/08/23 10:17:25;;;;;;;1.30;1.20;;;29.80;74.30;;;;;;5009931;28;20287;-75
2022/08/23 10:20:02;;;;;;;1.73;1.30;;;30.10;73.40;;;;;;5009838;28;20215;-76
2022/08/23 10:22:45;;;;;;;1.10;1.10;;;30.20;71.40;;;;;;5012810;28;20698;-75
2022/08/23 10:25:22;;;;;;;1.20;1.10;;;30.20;72.50;;;;;;5010044;28;20227;-75
2022/08/23 10:30:49;;;;;;;1.90;1.15;;;30.10;71.00;;;;;;5011739;28;20222;-75
2022/08/23 10:33:20;;;;;;;0.85;0.85;;;30.20;70.30;;;;;;5007939;28;20232;-76
2022/08/23 10:35:57;;;;;;;1.10;1.00;;;30.10;69.30;;;;;;5013886;28;20224;-75
2022/08/23 10:38:36;;;;;;;1.13;1.02;;;30.20;69.80;;;;;;5012889;28;20184;-76
2022/08/23 10:41:17;;;;;;;2.42;1.08;;;30.40;68.50;;;;;;5014871;28;20228;-75
2022/08/23 10:43:54;;;;;;;1.25;1.15;;;30.50;69.60;;;;;;5012531;28;20448;-75
2022/08/23 10:46:23;;;;;;;0.90;0.90;;;30.60;67.50;;;;;;5012504;28;20227;-74
2022/08/23 10:48:54;;;;;;;1.20;1.08;;;30.60;65.70;;;;;;5000653;28;20666;-74
2022/08/23 10:51:27;;;;;;;1.15;1.02;;;30.60;66.00;;;;;;5012037;28;20587;-74
2022/08/23 10:54:00;;;;;;;1.35;1.00;;;30.70;67.00;;;;;;5011427;28;20751;-74
2022/08/23 10:56:28;;;;;;;1.02;0.90;;;30.70;65.10;;;;;;5006605;28;20224;-74
2022/08/23 10:58:59;;;;;;;1.05;0.95;;;30.80;64.60;;;;;;5005142;28;20587;-72
2022/08/23 11:01:34;;;;;;;1.33;0.93;;;30.90;64.90;;;;;;5006804;28;20244;-74
2022/08/23 11:04:03;;;;;;;0.82;0.80;;;31.20;64.40;;;;;;5010125;28;20218;-74
2022/08/23 11:06:50;;;;;;;1.05;1.00;;;31.30;64.00;;;;;;5007058;28;20258;-74
2022/08/23 11:09:48;;;;;;;1.48;0.82;;;31.20;60.30;;;;;;5006781;28;20258;-73
2022/08/23 11:12:28;;;;;;;1.00;0.90;;;31.20;60.20;;;;;;4981556;28;20200;-74
2022/08/23 11:15:23;;;;;;;1.67;0.90;;;31.20;64.60;;;;;;5003724;28;20244;-73
2022/08/23 11:17:58;;;;;;;1.42;0.90;;;31.20;61.80;;;;;;5007800;28;20201;-73
2022/08/23 11:20:58;;;;;;;0.77;0.77;;;31.20;59.90;;;;;;5009102;28;20227;-73
2022/08/23 11:23:44;;;;;;;0.70;0.70;;;31.20;58.60;;;;;;5006844;28;20204;-73
2022/08/23 11:27:04;;;;;;;0.90;0.70;;;31.30;58.40;;;;;;5007653;28;20220;-74
2022/08/23 11:29:44;;;;;;;1.08;0.90;;;31.30;60.50;;;;;;5007554;28;20706;-74
2022/08/23 11:32:36;;;;;;;1.05;0.70;;;31.00;58.10;;;;;;5026162;23;20256;-73
2022/08/23 11:35:26;;;;;;;0.68;0.68;;;31.10;58.20;;;;;;5016335;28;20320;-74
2022/08/23 11:37:57;;;;;;;2.83;1.00;;;31.10;60.20;;;;;;5025739;28;20213;-75
2022/08/23 11:41:00;;;;;;;1.88;1.00;;;31.20;60.00;;;;;;5024827;28;20235;-75
2022/08/23 11:43:31;;;;;;;0.90;0.80;;;31.30;58.10;;;;;;4964878;28;20342;-75
2022/08/23 11:46:33;;;;;;;0.70;0.70;;;31.20;59.10;;;;;;5005525;28;20247;-78
2022/08/23 11:49:21;;;;;;;2.85;1.13;;;31.40;59.10;;;;;;4922767;29;20202;-77
2022/08/23 11:52:02;;;;;;;0.70;0.70;;;31.70;57.70;;;;;;4993055;28;20216;-78
2022/08/23 11:54:47;;;;;;;1.00;0.90;;;31.80;58.40;;;;;;4996358;28;20638;-78
2022/08/23 11:57:24;;;;;;;0.70;0.70;;;32.00;57.30;;;;;;5001004;28;20203;-79
2022/08/23 12:00:21;;;;;;;0.70;0.70;;;31.80;57.90;;;;;;5001223;28;20216;-79
2022/08/23 12:03:00;;;;;;;0.70;0.70;;;32.00;57.80;;;;;;5008029;28;20312;-78
2022/08/23 12:05:43;;;;;;;0.55;0.55;;;32.20;57.60;;;;;;5009574;28;20219;-80
2022/08/23 12:08:49;;;;;;;0.60;0.60;;;32.20;55.10;;;;;;5004440;28;20207;-79
2022/08/23 12:11:18;;;;;;;0.95;0.93;;;32.10;55.50;;;;;;5008071;28;20223;-80
2022/08/23 12:13:53;;;;;;;0.77;0.60;;;32.10;55.80;;;;;;5009677;28;20229;-79
2022/08/23 12:16:37;;;;;;;0.68;0.68;;;32.20;55.50;;;;;;5008893;28;20277;-79
2022/08/23 12:19:11;;;;;;;0.50;0.50;;;32.30;53.60;;;;;;5008909;28;20291;-79
2022/08/23 12:21:49;;;;;;;0.50;0.50;;;32.30;53.60;;;;;;5009959;28;20231;-79
2022/08/23 12:24:25;;;;;;;1.10;0.75;;;32.40;52.70;;;;;;5002966;28;20192;-79
2022/08/23 12:27:11;;;;;;;0.50;0.50;;;32.40;52.50;;;;;;5008271;28;20196;-80
2022/08/23 12:29:48;;;;;;;2.25;0.60;;;32.20;52.40;;;;;;5001521;28;20220;-79
2022/08/23 12:32:21;;;;;;;0.65;0.50;;;32.40;52.00;;;;;;5007467;28;20247;-80
2022/08/23 12:35:00;;;;;;;0.73;0.70;;;32.40;52.00;;;;;;5006266;28;20228;-80
2022/08/23 12:37:40;;;;;;;0.98;0.60;;;32.30;50.00;;;;;;5005696;28;20196;-80
2022/08/23 12:40:15;;;;;;;0.70;0.70;;;32.30;52.00;;;;;;5016252;28;20239;-79
2022/08/23 12:42:43;;;;;;;0.50;0.50;;;32.40;50.70;;;;;;5014273;28;20207;-79
2022/08/23 12:45:15;;;;;;;0.60;0.60;;;32.50;50.40;;;;;;5011448;28;20220;-79
2022/08/23 12:47:46;;;;;;;0.55;0.50;;;32.50;51.10;;;;;;5004450;28;20207;-79
2022/08/23 12:50:24;;;;;;;0.90;0.55;;;32.50;50.50;;;;;;5011462;28;20220;-79
2022/08/23 12:53:00;;;;;;;0.68;0.50;;;32.60;50.40;;;;;;5013835;28;20249;-79
2022/08/23 12:55:36;;;;;;;0.40;0.40;;;32.60;49.10;;;;;;5020916;28;20231;-79
2022/08/23 12:58:04;;;;;;;0.50;0.50;;;32.60;50.20;;;;;;5013524;28;20192;-80
2022/08/23 13:00:35;;;;;;;0.50;0.50;;;32.60;50.30;;;;;;5007964;28;20225;-79
2022/08/23 13:03:07;;;;;;;0.60;0.60;;;32.60;50.40;;;;;;5006875;28;20223;-80
2022/08/23 13:05:39;;;;;;;0.55;0.52;;;32.60;50.10;;;;;;5009005;28;20234;-80
2022/08/23 13:08:09;;;;;;;1.30;0.50;;;32.50;50.00;;;;;;5009257;28;20250;-81
2022/08/23 13:10:41;;;;;;;0.50;0.50;;;32.50;49.70;;;;;;5000773;28;20224;-79
2022/08/23 13:13:12;;;;;;;0.80;0.65;;;32.50;50.40;;;;;;5011197;28;20216;-78
2022/08/23 13:15:52;;;;;;;0.60;0.60;;;32.60;50.20;;;;;;5009752;28;20220;-78
2022/08/23 13:18:27;;;;;;;0.60;0.60;;;32.70;49.20;;;;;;4999033;28;20199;-78
2022/08/23 13:21:25;;;;;;;0.60;0.60;;;32.80;48.50;;;;;;5000194;28;20278;-80